sensor_id;sensor_type;location;lat;lon;timestamp;P1;durP1;ratioP1;P2;durP2;ratioP2
583;SDS011;27024;54.068;12.116;2022-12-24T00:01:05;11.13;;;4.55;;
583;SDS011;27024;54.068;12.116;2022-12-24T00:03:32;10.90;;;4.32;;
583;SDS011;27024;54.068;12.116;2022-12-24T00:06:04;10.55;;;4.30;;
583;SDS011;27024;54.068;12.116;2022-12-24T00:08:35;15.20;;;4.75;;
583;SDS011;27024;54.068;12.116;2022-12-24T00:11:02;12.35;;;4.50;;
583;SDS011;27024;54.068;12.116;2022-12-24T00:13:29;13.70;;;4.53;;
583;SDS011;27024;54.068;12.116;2022-12-24T00:15:56;13.15;;;4.72;;
583;SDS011;27024;54.068;12.116;2022-12-24T00:18:23;15.27;;;4.60;;
583;SDS011;27024;54.068;12.116;2022-12-24T00:20:50;12.77;;;5.03;;
583;SDS011;27024;54.068;12.116;2022-12-24T00:23:17;11.10;;;4.72;;
583;SDS011;27024;54.068;12.116;2022-12-24T00:25:45;12.25;;;4.50;;
583;SDS011;27024;54.068;12.116;2022-12-24T00:28:13;12.65;;;4.68;;
583;SDS011;27024;54.068;12.116;2022-12-24T00:30:41;12.40;;;4.82;;
583;SDS011;27024;54.068;12.116;2022-12-24T00:33:08;12.27;;;4.28;;
583;SDS011;27024;54.068;12.116;2022-12-24T00:35:36;10.82;;;4.20;;
583;SDS011;27024;54.068;12.116;2022-12-24T00:38:04;13.25;;;4.47;;
583;SDS011;27024;54.068;12.116;2022-12-24T00:40:31;11.20;;;4.70;;
583;SDS011;27024;54.068;12.116;2022-12-24T00:42:58;11.55;;;4.53;;
583;SDS011;27024;54.068;12.116;2022-12-24T00:45:25;11.57;;;4.43;;
583;SDS011;27024;54.068;12.116;2022-12-24T00:47:53;11.80;;;4.18;;
583;SDS011;27024;54.068;12.116;2022-12-24T00:50:20;11.13;;;4.57;;
583;SDS011;27024;54.068;12.116;2022-12-24T00:52:47;13.43;;;4.32;;
583;SDS011;27024;54.068;12.116;2022-12-24T00:55:14;11.60;;;4.45;;
583;SDS011;27024;54.068;12.116;2022-12-24T00:57:41;12.00;;;4.53;;
583;SDS011;27024;54.068;12.116;2022-12-24T01:00:08;10.52;;;4.05;;
583;SDS011;27024;54.068;12.116;2022-12-24T01:02:35;13.85;;;3.95;;
583;SDS011;27024;54.068;12.116;2022-12-24T01:05:03;11.63;;;4.25;;
583;SDS011;27024;54.068;12.116;2022-12-24T01:07:36;10.55;;;4.07;;
583;SDS011;27024;54.068;12.116;2022-12-24T01:10:05;9.10;;;3.83;;
583;SDS011;27024;54.068;12.116;2022-12-24T01:12:34;11.00;;;4.13;;
583;SDS011;27024;54.068;12.116;2022-12-24T01:15:01;14.90;;;4.93;;
583;SDS011;27024;54.068;12.116;2022-12-24T01:17:33;11.20;;;4.53;;
583;SDS011;27024;54.068;12.116;2022-12-24T01:20:02;10.88;;;4.57;;
583;SDS011;27024;54.068;12.116;2022-12-24T01:22:30;12.98;;;4.78;;
583;SDS011;27024;54.068;12.116;2022-12-24T01:24:57;14.73;;;4.70;;
583;SDS011;27024;54.068;12.116;2022-12-24T01:27:24;11.35;;;4.35;;
583;SDS011;27024;54.068;12.116;2022-12-24T01:29:51;10.77;;;4.47;;
583;SDS011;27024;54.068;12.116;2022-12-24T01:32:18;10.48;;;4.15;;
583;SDS011;27024;54.068;12.116;2022-12-24T01:34:45;10.73;;;4.45;;
583;SDS011;27024;54.068;12.116;2022-12-24T01:37:12;10.35;;;4.75;;
583;SDS011;27024;54.068;12.116;2022-12-24T01:39:39;12.73;;;4.63;;
583;SDS011;27024;54.068;12.116;2022-12-24T01:42:19;17.08;;;4.78;;
583;SDS011;27024;54.068;12.116;2022-12-24T01:48:33;12.43;;;4.43;;
583;SDS011;27024;54.068;12.116;2022-12-24T01:53:38;12.73;;;4.35;;
583;SDS011;27024;54.068;12.116;2022-12-24T01:56:08;10.93;;;3.65;;
583;SDS011;27024;54.068;12.116;2022-12-24T01:58:37;10.18;;;4.35;;
583;SDS011;27024;54.068;12.116;2022-12-24T02:01:07;11.20;;;4.53;;
583;SDS011;27024;54.068;12.116;2022-12-24T02:03:35;10.80;;;3.80;;
583;SDS011;27024;54.068;12.116;2022-12-24T02:06:01;9.95;;;4.40;;
583;SDS011;27024;54.068;12.116;2022-12-24T02:08:29;11.90;;;4.13;;
583;SDS011;27024;54.068;12.116;2022-12-24T02:11:09;10.95;;;4.32;;
583;SDS011;27024;54.068;12.116;2022-12-24T02:13:41;10.90;;;3.90;;
583;SDS011;27024;54.068;12.116;2022-12-24T02:24:43;9.55;;;3.67;;
583;SDS011;27024;54.068;12.116;2022-12-24T02:30:17;10.55;;;3.63;;
583;SDS011;27024;54.068;12.116;2022-12-24T02:35:53;9.25;;;3.08;;
583;SDS011;27024;54.068;12.116;2022-12-24T02:38:37;11.27;;;3.70;;
583;SDS011;27024;54.068;12.116;2022-12-24T02:41:17;12.95;;;3.78;;
583;SDS011;27024;54.068;12.116;2022-12-24T02:43:48;8.15;;;3.72;;
583;SDS011;27024;54.068;12.116;2022-12-24T02:46:19;11.40;;;4.15;;
583;SDS011;27024;54.068;12.116;2022-12-24T02:48:49;11.13;;;3.45;;
583;SDS011;27024;54.068;12.116;2022-12-24T02:51:20;7.57;;;3.42;;
583;SDS011;27024;54.068;12.116;2022-12-24T02:53:48;7.93;;;3.33;;
583;SDS011;27024;54.068;12.116;2022-12-24T02:58:55;9.63;;;3.88;;
583;SDS011;27024;54.068;12.116;2022-12-24T03:07:11;9.18;;;3.22;;
583;SDS011;27024;54.068;12.116;2022-12-24T03:09:55;10.73;;;3.83;;
583;SDS011;27024;54.068;12.116;2022-12-24T03:12:30;11.82;;;3.50;;
583;SDS011;27024;54.068;12.116;2022-12-24T03:14:58;9.82;;;3.10;;
583;SDS011;27024;54.068;12.116;2022-12-24T03:17:26;9.57;;;3.85;;
583;SDS011;27024;54.068;12.116;2022-12-24T03:19:53;13.43;;;4.05;;
583;SDS011;27024;54.068;12.116;2022-12-24T03:22:21;10.55;;;3.83;;
583;SDS011;27024;54.068;12.116;2022-12-24T03:24:52;9.95;;;3.35;;
583;SDS011;27024;54.068;12.116;2022-12-24T03:27:20;14.32;;;3.33;;
583;SDS011;27024;54.068;12.116;2022-12-24T03:29:50;11.73;;;4.30;;
583;SDS011;27024;54.068;12.116;2022-12-24T03:32:21;9.85;;;3.40;;
583;SDS011;27024;54.068;12.116;2022-12-24T03:34:58;17.63;;;3.92;;
583;SDS011;27024;54.068;12.116;2022-12-24T03:37:25;12.85;;;4.25;;
583;SDS011;27024;54.068;12.116;2022-12-24T03:39:52;11.57;;;3.50;;
583;SDS011;27024;54.068;12.116;2022-12-24T03:42:19;11.45;;;4.18;;
583;SDS011;27024;54.068;12.116;2022-12-24T03:44:46;11.30;;;3.58;;
583;SDS011;27024;54.068;12.116;2022-12-24T03:47:13;10.13;;;3.75;;
583;SDS011;27024;54.068;12.116;2022-12-24T03:49:39;7.93;;;3.42;;
583;SDS011;27024;54.068;12.116;2022-12-24T03:52:06;10.75;;;3.90;;
583;SDS011;27024;54.068;12.116;2022-12-24T03:54:33;9.85;;;3.40;;
583;SDS011;27024;54.068;12.116;2022-12-24T03:57:00;14.07;;;4.30;;
583;SDS011;27024;54.068;12.116;2022-12-24T03:59:26;11.48;;;3.22;;
583;SDS011;27024;54.068;12.116;2022-12-24T04:01:53;10.32;;;3.45;;
583;SDS011;27024;54.068;12.116;2022-12-24T04:04:20;10.40;;;3.67;;
583;SDS011;27024;54.068;12.116;2022-12-24T04:06:47;10.45;;;4.22;;
583;SDS011;27024;54.068;12.116;2022-12-24T04:09:14;11.77;;;4.30;;
583;SDS011;27024;54.068;12.116;2022-12-24T04:11:41;11.77;;;3.83;;
583;SDS011;27024;54.068;12.116;2022-12-24T04:14:08;13.18;;;4.25;;
583;SDS011;27024;54.068;12.116;2022-12-24T04:16:34;11.50;;;3.72;;
583;SDS011;27024;54.068;12.116;2022-12-24T04:19:01;12.20;;;3.90;;
583;SDS011;27024;54.068;12.116;2022-12-24T04:21:28;13.90;;;3.85;;
583;SDS011;27024;54.068;12.116;2022-12-24T04:23:55;12.20;;;4.07;;
583;SDS011;27024;54.068;12.116;2022-12-24T04:26:21;9.73;;;3.72;;
583;SDS011;27024;54.068;12.116;2022-12-24T04:28:48;11.43;;;4.03;;
583;SDS011;27024;54.068;12.116;2022-12-24T04:31:15;10.75;;;3.60;;
583;SDS011;27024;54.068;12.116;2022-12-24T04:33:43;9.90;;;3.70;;
583;SDS011;27024;54.068;12.116;2022-12-24T04:36:12;13.40;;;3.75;;
583;SDS011;27024;54.068;12.116;2022-12-24T04:38:42;13.48;;;4.25;;
583;SDS011;27024;54.068;12.116;2022-12-24T04:41:10;12.23;;;3.90;;
583;SDS011;27024;54.068;12.116;2022-12-24T04:43:48;10.70;;;3.88;;
583;SDS011;27024;54.068;12.116;2022-12-24T04:46:16;11.63;;;3.97;;
583;SDS011;27024;54.068;12.116;2022-12-24T04:48:47;11.95;;;3.78;;
583;SDS011;27024;54.068;12.116;2022-12-24T04:51:16;10.55;;;3.60;;
583;SDS011;27024;54.068;12.116;2022-12-24T04:53:43;9.85;;;3.78;;
583;SDS011;27024;54.068;12.116;2022-12-24T04:56:15;10.25;;;3.92;;
583;SDS011;27024;54.068;12.116;2022-12-24T04:58:52;10.10;;;3.42;;
583;SDS011;27024;54.068;12.116;2022-12-24T05:01:24;12.95;;;3.30;;
583;SDS011;27024;54.068;12.116;2022-12-24T05:03:52;10.00;;;4.18;;
583;SDS011;27024;54.068;12.116;2022-12-24T05:06:21;8.52;;;3.60;;
583;SDS011;27024;54.068;12.116;2022-12-24T05:08:54;11.63;;;3.85;;
583;SDS011;27024;54.068;12.116;2022-12-24T05:11:22;8.55;;;3.65;;
583;SDS011;27024;54.068;12.116;2022-12-24T05:13:49;9.35;;;3.80;;
583;SDS011;27024;54.068;12.116;2022-12-24T05:16:16;11.27;;;3.80;;
583;SDS011;27024;54.068;12.116;2022-12-24T05:18:44;10.13;;;3.58;;
583;SDS011;27024;54.068;12.116;2022-12-24T05:21:15;12.05;;;4.25;;
583;SDS011;27024;54.068;12.116;2022-12-24T05:23:44;11.30;;;3.70;;
583;SDS011;27024;54.068;12.116;2022-12-24T05:28:59;11.68;;;3.63;;
583;SDS011;27024;54.068;12.116;2022-12-24T05:31:27;11.32;;;3.90;;
583;SDS011;27024;54.068;12.116;2022-12-24T05:33:55;12.32;;;3.88;;
583;SDS011;27024;54.068;12.116;2022-12-24T05:36:22;10.82;;;3.65;;
583;SDS011;27024;54.068;12.116;2022-12-24T05:38:49;8.63;;;3.45;;
583;SDS011;27024;54.068;12.116;2022-12-24T05:41:17;12.60;;;3.75;;
583;SDS011;27024;54.068;12.116;2022-12-24T05:43:44;12.73;;;4.55;;
583;SDS011;27024;54.068;12.116;2022-12-24T05:46:13;12.50;;;4.00;;
583;SDS011;27024;54.068;12.116;2022-12-24T05:48:42;12.70;;;4.13;;
583;SDS011;27024;54.068;12.116;2022-12-24T05:51:09;14.65;;;4.05;;
583;SDS011;27024;54.068;12.116;2022-12-24T05:53:38;13.50;;;4.07;;
583;SDS011;27024;54.068;12.116;2022-12-24T05:56:06;10.82;;;3.88;;
583;SDS011;27024;54.068;12.116;2022-12-24T05:58:38;9.88;;;3.90;;
583;SDS011;27024;54.068;12.116;2022-12-24T06:01:06;12.07;;;4.20;;
583;SDS011;27024;54.068;12.116;2022-12-24T06:03:33;11.63;;;4.50;;
583;SDS011;27024;54.068;12.116;2022-12-24T06:06:04;10.68;;;3.50;;
583;SDS011;27024;54.068;12.116;2022-12-24T06:08:33;12.23;;;4.32;;
583;SDS011;27024;54.068;12.116;2022-12-24T06:11:03;8.35;;;4.18;;
583;SDS011;27024;54.068;12.116;2022-12-24T06:13:31;9.90;;;3.97;;
583;SDS011;27024;54.068;12.116;2022-12-24T06:15:59;12.75;;;4.65;;
583;SDS011;27024;54.068;12.116;2022-12-24T06:18:31;10.80;;;3.88;;
583;SDS011;27024;54.068;12.116;2022-12-24T06:20:59;11.65;;;3.90;;
583;SDS011;27024;54.068;12.116;2022-12-24T06:23:30;13.80;;;4.13;;
583;SDS011;27024;54.068;12.116;2022-12-24T06:25:59;12.45;;;4.43;;
583;SDS011;27024;54.068;12.116;2022-12-24T06:28:27;13.90;;;4.43;;
583;SDS011;27024;54.068;12.116;2022-12-24T06:30:58;11.82;;;4.63;;
583;SDS011;27024;54.068;12.116;2022-12-24T06:33:29;12.13;;;4.10;;
583;SDS011;27024;54.068;12.116;2022-12-24T06:35:57;17.13;;;4.72;;
583;SDS011;27024;54.068;12.116;2022-12-24T06:38:24;11.57;;;4.53;;
583;SDS011;27024;54.068;12.116;2022-12-24T06:40:51;10.15;;;4.65;;
583;SDS011;27024;54.068;12.116;2022-12-24T06:43:18;16.95;;;4.72;;
583;SDS011;27024;54.068;12.116;2022-12-24T06:45:45;11.60;;;4.32;;
583;SDS011;27024;54.068;12.116;2022-12-24T06:48:13;11.30;;;4.22;;
583;SDS011;27024;54.068;12.116;2022-12-24T06:50:41;17.02;;;4.82;;
583;SDS011;27024;54.068;12.116;2022-12-24T06:53:08;13.93;;;4.20;;
583;SDS011;27024;54.068;12.116;2022-12-24T06:55:35;10.63;;;4.15;;
583;SDS011;27024;54.068;12.116;2022-12-24T06:58:03;10.75;;;4.20;;
583;SDS011;27024;54.068;12.116;2022-12-24T07:00:30;10.55;;;4.35;;
583;SDS011;27024;54.068;12.116;2022-12-24T07:02:57;13.95;;;4.78;;
583;SDS011;27024;54.068;12.116;2022-12-24T07:05:24;11.43;;;4.60;;
583;SDS011;27024;54.068;12.116;2022-12-24T07:07:51;12.65;;;4.57;;
583;SDS011;27024;54.068;12.116;2022-12-24T07:10:18;14.43;;;4.43;;
583;SDS011;27024;54.068;12.116;2022-12-24T07:12:46;11.48;;;4.05;;
583;SDS011;27024;54.068;12.116;2022-12-24T07:15:13;10.27;;;4.15;;
583;SDS011;27024;54.068;12.116;2022-12-24T07:17:41;13.63;;;4.30;;
583;SDS011;27024;54.068;12.116;2022-12-24T07:20:10;13.57;;;4.25;;
583;SDS011;27024;54.068;12.116;2022-12-24T07:22:40;11.45;;;4.47;;
583;SDS011;27024;54.068;12.116;2022-12-24T07:25:08;11.15;;;4.53;;
583;SDS011;27024;54.068;12.116;2022-12-24T07:27:36;10.57;;;3.97;;
583;SDS011;27024;54.068;12.116;2022-12-24T07:30:03;11.27;;;4.65;;
583;SDS011;27024;54.068;12.116;2022-12-24T07:32:30;10.88;;;4.13;;
583;SDS011;27024;54.068;12.116;2022-12-24T07:34:57;11.27;;;3.83;;
583;SDS011;27024;54.068;12.116;2022-12-24T07:37:24;11.25;;;4.10;;
583;SDS011;27024;54.068;12.116;2022-12-24T07:39:51;12.32;;;4.20;;
583;SDS011;27024;54.068;12.116;2022-12-24T07:42:18;8.43;;;4.07;;
583;SDS011;27024;54.068;12.116;2022-12-24T07:44:45;14.00;;;4.53;;
583;SDS011;27024;54.068;12.116;2022-12-24T07:47:12;12.45;;;3.70;;
583;SDS011;27024;54.068;12.116;2022-12-24T07:49:38;9.57;;;3.63;;
583;SDS011;27024;54.068;12.116;2022-12-24T07:52:05;15.77;;;4.20;;
583;SDS011;27024;54.068;12.116;2022-12-24T07:54:32;8.85;;;3.50;;
583;SDS011;27024;54.068;12.116;2022-12-24T07:56:59;15.35;;;4.53;;
583;SDS011;27024;54.068;12.116;2022-12-24T07:59:26;10.05;;;3.80;;
583;SDS011;27024;54.068;12.116;2022-12-24T08:01:52;12.68;;;4.07;;
583;SDS011;27024;54.068;12.116;2022-12-24T08:04:19;9.35;;;3.38;;
583;SDS011;27024;54.068;12.116;2022-12-24T08:06:46;9.80;;;3.72;;
583;SDS011;27024;54.068;12.116;2022-12-24T08:09:13;13.95;;;4.88;;
583;SDS011;27024;54.068;12.116;2022-12-24T08:11:40;12.13;;;4.20;;
583;SDS011;27024;54.068;12.116;2022-12-24T08:14:16;14.02;;;4.00;;
583;SDS011;27024;54.068;12.116;2022-12-24T08:16:43;10.93;;;3.78;;
583;SDS011;27024;54.068;12.116;2022-12-24T08:19:10;11.38;;;3.72;;
583;SDS011;27024;54.068;12.116;2022-12-24T08:21:37;10.45;;;3.95;;
583;SDS011;27024;54.068;12.116;2022-12-24T08:24:04;12.35;;;4.00;;
583;SDS011;27024;54.068;12.116;2022-12-24T08:26:31;10.38;;;4.28;;
583;SDS011;27024;54.068;12.116;2022-12-24T08:28:59;12.30;;;4.18;;
583;SDS011;27024;54.068;12.116;2022-12-24T08:31:25;12.50;;;4.07;;
583;SDS011;27024;54.068;12.116;2022-12-24T08:33:52;12.23;;;4.80;;
583;SDS011;27024;54.068;12.116;2022-12-24T08:36:19;11.75;;;3.72;;
583;SDS011;27024;54.068;12.116;2022-12-24T08:38:46;11.13;;;3.65;;
583;SDS011;27024;54.068;12.116;2022-12-24T08:41:13;10.90;;;4.05;;
583;SDS011;27024;54.068;12.116;2022-12-24T08:43:40;11.02;;;3.90;;
583;SDS011;27024;54.068;12.116;2022-12-24T08:46:06;8.02;;;3.40;;
583;SDS011;27024;54.068;12.116;2022-12-24T08:48:33;10.95;;;3.63;;
583;SDS011;27024;54.068;12.116;2022-12-24T08:51:05;10.65;;;4.13;;
583;SDS011;27024;54.068;12.116;2022-12-24T08:53:34;9.50;;;3.45;;
583;SDS011;27024;54.068;12.116;2022-12-24T08:56:05;13.05;;;3.90;;
583;SDS011;27024;54.068;12.116;2022-12-24T08:58:34;11.98;;;4.15;;
583;SDS011;27024;54.068;12.116;2022-12-24T09:01:08;11.55;;;3.63;;
583;SDS011;27024;54.068;12.116;2022-12-24T09:03:37;9.85;;;4.03;;
583;SDS011;27024;54.068;12.116;2022-12-24T09:06:04;14.40;;;4.45;;
583;SDS011;27024;54.068;12.116;2022-12-24T09:08:32;8.27;;;4.07;;
583;SDS011;27024;54.068;12.116;2022-12-24T09:11:04;10.82;;;4.10;;
583;SDS011;27024;54.068;12.116;2022-12-24T09:13:35;11.80;;;5.97;;
583;SDS011;27024;54.068;12.116;2022-12-24T09:16:03;8.85;;;3.47;;
583;SDS011;27024;54.068;12.116;2022-12-24T09:18:31;8.80;;;4.32;;
583;SDS011;27024;54.068;12.116;2022-12-24T09:20:59;11.18;;;4.15;;
583;SDS011;27024;54.068;12.116;2022-12-24T09:23:26;10.80;;;3.78;;
583;SDS011;27024;54.068;12.116;2022-12-24T09:25:54;10.18;;;3.92;;
583;SDS011;27024;54.068;12.116;2022-12-24T09:28:22;10.35;;;4.35;;
583;SDS011;27024;54.068;12.116;2022-12-24T09:30:56;10.77;;;4.20;;
583;SDS011;27024;54.068;12.116;2022-12-24T09:33:29;12.68;;;4.05;;
583;SDS011;27024;54.068;12.116;2022-12-24T09:35:58;11.88;;;4.15;;
583;SDS011;27024;54.068;12.116;2022-12-24T09:38:25;13.20;;;4.22;;
583;SDS011;27024;54.068;12.116;2022-12-24T09:40:53;13.45;;;4.63;;
583;SDS011;27024;54.068;12.116;2022-12-24T09:43:30;11.57;;;4.50;;
583;SDS011;27024;54.068;12.116;2022-12-24T09:48:32;10.40;;;4.75;;
583;SDS011;27024;54.068;12.116;2022-12-24T09:51:10;12.13;;;4.35;;
583;SDS011;27024;54.068;12.116;2022-12-24T09:53:48;10.48;;;3.97;;
583;SDS011;27024;54.068;12.116;2022-12-24T09:56:23;8.90;;;4.00;;
583;SDS011;27024;54.068;12.116;2022-12-24T10:01:25;9.52;;;3.85;;
583;SDS011;27024;54.068;12.116;2022-12-24T10:04:03;11.25;;;3.97;;
583;SDS011;27024;54.068;12.116;2022-12-24T10:06:43;10.57;;;4.03;;
583;SDS011;27024;54.068;12.116;2022-12-24T10:09:36;9.98;;;3.60;;
583;SDS011;27024;54.068;12.116;2022-12-24T10:15:29;10.05;;;3.88;;
583;SDS011;27024;54.068;12.116;2022-12-24T10:20:45;11.15;;;3.55;;
583;SDS011;27024;54.068;12.116;2022-12-24T10:25:54;7.60;;;3.40;;
583;SDS011;27024;54.068;12.116;2022-12-24T10:28:35;9.88;;;4.00;;
583;SDS011;27024;54.068;12.116;2022-12-24T10:31:19;12.05;;;4.22;;
583;SDS011;27024;54.068;12.116;2022-12-24T10:33:55;10.45;;;4.13;;
583;SDS011;27024;54.068;12.116;2022-12-24T10:36:27;11.30;;;4.40;;
583;SDS011;27024;54.068;12.116;2022-12-24T10:38:55;12.07;;;4.53;;
583;SDS011;27024;54.068;12.116;2022-12-24T10:41:23;9.85;;;4.15;;
583;SDS011;27024;54.068;12.116;2022-12-24T10:43:52;11.60;;;4.32;;
583;SDS011;27024;54.068;12.116;2022-12-24T10:48:53;10.02;;;4.20;;
583;SDS011;27024;54.068;12.116;2022-12-24T10:54:24;7.85;;;3.67;;
583;SDS011;27024;54.068;12.116;2022-12-24T10:56:55;7.85;;;3.13;;
583;SDS011;27024;54.068;12.116;2022-12-24T10:59:28;12.00;;;3.45;;
583;SDS011;27024;54.068;12.116;2022-12-24T11:01:59;10.65;;;4.05;;
583;SDS011;27024;54.068;12.116;2022-12-24T11:04:28;9.02;;;4.05;;
583;SDS011;27024;54.068;12.116;2022-12-24T11:07:01;9.65;;;3.67;;
583;SDS011;27024;54.068;12.116;2022-12-24T11:09:31;11.05;;;3.80;;
583;SDS011;27024;54.068;12.116;2022-12-24T11:12:00;8.02;;;3.25;;
583;SDS011;27024;54.068;12.116;2022-12-24T11:14:36;7.80;;;3.40;;
583;SDS011;27024;54.068;12.116;2022-12-24T11:17:04;9.48;;;3.50;;
583;SDS011;27024;54.068;12.116;2022-12-24T11:19:32;9.05;;;3.22;;
583;SDS011;27024;54.068;12.116;2022-12-24T11:22:07;10.63;;;3.38;;
583;SDS011;27024;54.068;12.116;2022-12-24T11:24:44;13.80;;;3.25;;
583;SDS011;27024;54.068;12.116;2022-12-24T11:32:43;8.95;;;2.85;;
583;SDS011;27024;54.068;12.116;2022-12-24T11:35:15;8.57;;;2.95;;
583;SDS011;27024;54.068;12.116;2022-12-24T11:43:19;7.20;;;3.65;;
583;SDS011;27024;54.068;12.116;2022-12-24T11:45:52;7.72;;;2.80;;
583;SDS011;27024;54.068;12.116;2022-12-24T11:48:23;7.53;;;3.05;;
583;SDS011;27024;54.068;12.116;2022-12-24T11:50:55;7.65;;;3.30;;
583;SDS011;27024;54.068;12.116;2022-12-24T11:56:27;9.55;;;3.13;;
583;SDS011;27024;54.068;12.116;2022-12-24T11:59:08;8.55;;;2.97;;
583;SDS011;27024;54.068;12.116;2022-12-24T12:02:05;7.00;;;2.65;;
583;SDS011;27024;54.068;12.116;2022-12-24T12:04:43;9.05;;;3.40;;
583;SDS011;27024;54.068;12.116;2022-12-24T12:07:16;8.90;;;3.25;;
583;SDS011;27024;54.068;12.116;2022-12-24T12:09:48;9.93;;;2.95;;
583;SDS011;27024;54.068;12.116;2022-12-24T12:12:26;10.80;;;3.28;;
583;SDS011;27024;54.068;12.116;2022-12-24T12:14:57;9.93;;;3.35;;
583;SDS011;27024;54.068;12.116;2022-12-24T12:17:30;7.45;;;3.70;;
583;SDS011;27024;54.068;12.116;2022-12-24T12:25:49;8.75;;;3.20;;
583;SDS011;27024;54.068;12.116;2022-12-24T12:28:44;14.43;;;3.78;;
583;SDS011;27024;54.068;12.116;2022-12-24T12:31:50;8.30;;;3.60;;
583;SDS011;27024;54.068;12.116;2022-12-24T12:34:36;7.57;;;3.30;;
583;SDS011;27024;54.068;12.116;2022-12-24T12:37:34;10.88;;;4.50;;
583;SDS011;27024;54.068;12.116;2022-12-24T12:40:10;10.70;;;3.63;;
583;SDS011;27024;54.068;12.116;2022-12-24T12:42:42;9.68;;;3.55;;
583;SDS011;27024;54.068;12.116;2022-12-24T12:48:07;8.60;;;3.22;;
583;SDS011;27024;54.068;12.116;2022-12-24T12:56:57;10.77;;;4.22;;
583;SDS011;27024;54.068;12.116;2022-12-24T12:59:39;10.70;;;4.53;;
583;SDS011;27024;54.068;12.116;2022-12-24T13:10:28;13.40;;;5.03;;
583;SDS011;27024;54.068;12.116;2022-12-24T13:22:03;11.55;;;4.40;;
583;SDS011;27024;54.068;12.116;2022-12-24T13:24:31;12.52;;;5.28;;
583;SDS011;27024;54.068;12.116;2022-12-24T13:27:00;10.13;;;4.40;;
583;SDS011;27024;54.068;12.116;2022-12-24T13:32:35;10.93;;;4.50;;
583;SDS011;27024;54.068;12.116;2022-12-24T13:37:47;10.82;;;4.78;;
583;SDS011;27024;54.068;12.116;2022-12-24T13:42:48;11.35;;;5.20;;
583;SDS011;27024;54.068;12.116;2022-12-24T13:50:35;12.85;;;5.18;;
583;SDS011;27024;54.068;12.116;2022-12-24T13:53:05;13.50;;;4.60;;
583;SDS011;27024;54.068;12.116;2022-12-24T13:58:35;10.77;;;4.88;;
583;SDS011;27024;54.068;12.116;2022-12-24T14:01:07;10.90;;;4.82;;
583;SDS011;27024;54.068;12.116;2022-12-24T14:08:46;12.60;;;4.53;;
583;SDS011;27024;54.068;12.116;2022-12-24T14:16:13;12.80;;;4.88;;
583;SDS011;27024;54.068;12.116;2022-12-24T14:24:31;12.98;;;5.50;;
583;SDS011;27024;54.068;12.116;2022-12-24T14:30:16;13.05;;;5.07;;
583;SDS011;27024;54.068;12.116;2022-12-24T14:32:46;14.85;;;4.85;;
583;SDS011;27024;54.068;12.116;2022-12-24T14:35:15;11.88;;;4.95;;
583;SDS011;27024;54.068;12.116;2022-12-24T14:37:44;13.38;;;4.60;;
583;SDS011;27024;54.068;12.116;2022-12-24T14:40:19;12.35;;;4.80;;
583;SDS011;27024;54.068;12.116;2022-12-24T14:45:32;13.65;;;4.63;;
583;SDS011;27024;54.068;12.116;2022-12-24T14:56:13;10.13;;;4.32;;
583;SDS011;27024;54.068;12.116;2022-12-24T14:58:42;9.55;;;4.10;;
583;SDS011;27024;54.068;12.116;2022-12-24T15:01:23;12.98;;;4.50;;
583;SDS011;27024;54.068;12.116;2022-12-24T15:04:13;12.15;;;4.85;;
583;SDS011;27024;54.068;12.116;2022-12-24T15:09:20;9.80;;;4.13;;
583;SDS011;27024;54.068;12.116;2022-12-24T15:11:50;10.52;;;4.00;;
583;SDS011;27024;54.068;12.116;2022-12-24T15:14:19;9.98;;;4.10;;
583;SDS011;27024;54.068;12.116;2022-12-24T15:17:09;9.38;;;4.28;;
583;SDS011;27024;54.068;12.116;2022-12-24T15:19:36;10.07;;;4.55;;
583;SDS011;27024;54.068;12.116;2022-12-24T15:22:08;11.90;;;5.22;;
583;SDS011;27024;54.068;12.116;2022-12-24T15:24:44;14.80;;;4.95;;
583;SDS011;27024;54.068;12.116;2022-12-24T15:27:20;13.10;;;4.95;;
583;SDS011;27024;54.068;12.116;2022-12-24T15:29:50;11.88;;;4.75;;
583;SDS011;27024;54.068;12.116;2022-12-24T15:32:19;13.05;;;4.95;;
583;SDS011;27024;54.068;12.116;2022-12-24T15:34:47;15.77;;;6.18;;
583;SDS011;27024;54.068;12.116;2022-12-24T15:39:57;16.90;;;7.03;;
583;SDS011;27024;54.068;12.116;2022-12-24T15:42:32;18.83;;;7.05;;
583;SDS011;27024;54.068;12.116;2022-12-24T15:47:32;18.40;;;7.90;;
583;SDS011;27024;54.068;12.116;2022-12-24T15:50:14;18.27;;;7.45;;
583;SDS011;27024;54.068;12.116;2022-12-24T15:52:53;19.60;;;7.90;;
583;SDS011;27024;54.068;12.116;2022-12-24T15:55:43;18.48;;;8.20;;
583;SDS011;27024;54.068;12.116;2022-12-24T15:58:15;18.05;;;8.30;;
583;SDS011;27024;54.068;12.116;2022-12-24T16:03:36;22.25;;;9.13;;
583;SDS011;27024;54.068;12.116;2022-12-24T16:06:05;24.48;;;9.13;;
583;SDS011;27024;54.068;12.116;2022-12-24T16:08:34;29.15;;;9.80;;
583;SDS011;27024;54.068;12.116;2022-12-24T16:13:32;20.27;;;9.05;;
583;SDS011;27024;54.068;12.116;2022-12-24T16:16:11;22.55;;;9.15;;
583;SDS011;27024;54.068;12.116;2022-12-24T16:21:21;22.25;;;9.63;;
583;SDS011;27024;54.068;12.116;2022-12-24T16:23:56;22.20;;;9.57;;
583;SDS011;27024;54.068;12.116;2022-12-24T16:26:32;23.52;;;9.25;;
583;SDS011;27024;54.068;12.116;2022-12-24T16:29:00;24.63;;;10.10;;
583;SDS011;27024;54.068;12.116;2022-12-24T16:31:28;22.30;;;9.30;;
583;SDS011;27024;54.068;12.116;2022-12-24T16:33:58;28.80;;;11.13;;
583;SDS011;27024;54.068;12.116;2022-12-24T16:36:26;24.48;;;10.50;;
583;SDS011;27024;54.068;12.116;2022-12-24T16:38:55;26.45;;;10.38;;
583;SDS011;27024;54.068;12.116;2022-12-24T16:41:48;24.88;;;10.18;;
583;SDS011;27024;54.068;12.116;2022-12-24T16:44:40;30.80;;;10.63;;
583;SDS011;27024;54.068;12.116;2022-12-24T16:47:20;27.98;;;9.85;;
583;SDS011;27024;54.068;12.116;2022-12-24T16:49:49;24.80;;;8.75;;
583;SDS011;27024;54.068;12.116;2022-12-24T16:52:17;27.48;;;9.88;;
583;SDS011;27024;54.068;12.116;2022-12-24T16:54:47;29.13;;;10.05;;
583;SDS011;27024;54.068;12.116;2022-12-24T16:57:15;27.05;;;10.15;;
583;SDS011;27024;54.068;12.116;2022-12-24T16:59:42;31.40;;;10.73;;
583;SDS011;27024;54.068;12.116;2022-12-24T17:02:10;29.23;;;10.13;;
583;SDS011;27024;54.068;12.116;2022-12-24T17:04:40;26.85;;;10.35;;
583;SDS011;27024;54.068;12.116;2022-12-24T17:07:11;26.98;;;10.10;;
583;SDS011;27024;54.068;12.116;2022-12-24T17:09:40;31.85;;;10.68;;
583;SDS011;27024;54.068;12.116;2022-12-24T17:12:07;28.38;;;10.07;;
583;SDS011;27024;54.068;12.116;2022-12-24T17:14:34;31.05;;;10.93;;
583;SDS011;27024;54.068;12.116;2022-12-24T17:17:01;27.65;;;10.20;;
583;SDS011;27024;54.068;12.116;2022-12-24T17:19:29;31.80;;;9.93;;
583;SDS011;27024;54.068;12.116;2022-12-24T17:21:56;36.78;;;10.88;;
583;SDS011;27024;54.068;12.116;2022-12-24T17:24:23;36.15;;;10.82;;
583;SDS011;27024;54.068;12.116;2022-12-24T17:26:50;31.17;;;11.02;;
583;SDS011;27024;54.068;12.116;2022-12-24T17:29:17;41.42;;;11.48;;
583;SDS011;27024;54.068;12.116;2022-12-24T17:31:43;37.63;;;11.90;;
583;SDS011;27024;54.068;12.116;2022-12-24T17:34:10;38.40;;;12.10;;
583;SDS011;27024;54.068;12.116;2022-12-24T17:36:37;36.25;;;11.05;;
583;SDS011;27024;54.068;12.116;2022-12-24T17:39:05;32.70;;;10.95;;
583;SDS011;27024;54.068;12.116;2022-12-24T17:41:32;36.05;;;11.25;;
583;SDS011;27024;54.068;12.116;2022-12-24T17:43:59;27.67;;;10.35;;
583;SDS011;27024;54.068;12.116;2022-12-24T17:46:25;36.97;;;13.23;;
583;SDS011;27024;54.068;12.116;2022-12-24T17:48:52;37.08;;;11.73;;